DEELO EDDG-ZZZZ
Flight info
| Callsign | DEELO |
|---|---|
| Flight time | N/A |
| Altitude | |
| Route | |
| Aircraft | DA42 |
Departure
| Time | 2026-04-26 18:38 |
|---|---|
| Airport | Münster Osnabrück Airport (EDDG) |
Arrival
| Time | N/A |
|---|---|
| Airport | ZZZZ |
| Time | Latitude | Longitude | Altitude | Speed | Heading |
|---|---|---|---|---|---|
| 2026-04-26 18:35 | 52.13585 | 7.69876 | 160 ft | 0 kts | 69° |
| 2026-04-26 18:35 | 52.13635 | 7.70018 | 160 ft | 29 kts | 26° |
| 2026-04-26 18:35 | 52.13773 | 7.69922 | 161 ft | 18 kts | 252° |
| 2026-04-26 18:36 | 52.13752 | 7.69836 | 163 ft | 0 kts | 251° |
| 2026-04-26 18:36 | 52.13709 | 7.69628 | 164 ft | 55 kts | 252° |
| 2026-04-26 18:37 | 52.13527 | 7.68774 | 286 ft | 92 kts | 252° |
| 2026-04-26 18:37 | 52.13282 | 7.67671 | 373 ft | 113 kts | 252° |
| 2026-04-26 18:37 | 52.12987 | 7.66439 | 524 ft | 115 kts | 246° |
| 2026-04-26 18:37 | 52.12515 | 7.65362 | 654 ft | 122 kts | 214° |
| 2026-04-26 18:38 | 52.11681 | 7.65064 | 745 ft | 125 kts | 180° |
| 2026-04-26 18:38 | 52.10841 | 7.64873 | 792 ft | 130 kts | 231° |
| 2026-04-26 18:38 | 52.10666 | 7.63524 | 895 ft | 121 kts | 261° |
| 2026-04-26 18:38 | 52.10409 | 7.62300 | 1201 ft | 102 kts | 242° |
| 2026-04-26 18:39 | 52.10008 | 7.61315 | 1215 ft | 120 kts | 256° |
| 2026-04-26 18:39 | 52.09776 | 7.60033 | 1361 ft | 117 kts | 252° |
| 2026-04-26 18:39 | 52.09409 | 7.58842 | 1512 ft | 115 kts | 233° |
| 2026-04-26 18:39 | 52.08654 | 7.58676 | 1428 ft | 126 kts | 152° |
| 2026-04-26 18:40 | 52.07873 | 7.59424 | 1402 ft | 128 kts | 145° |
| 2026-04-26 18:40 | 52.07177 | 7.60227 | 1322 ft | 111 kts | 139° |
| 2026-04-26 18:40 | 52.06587 | 7.61009 | 1210 ft | 108 kts | 143° |
| 2026-04-26 18:40 | 52.05893 | 7.61450 | 1112 ft | 107 kts | 168° |
| 2026-04-26 18:41 | 52.05161 | 7.61338 | 1046 ft | 105 kts | 194° |
| 2026-04-26 18:41 | 52.04464 | 7.61004 | 975 ft | 104 kts | 197° |
| 2026-04-26 18:41 | 52.03756 | 7.60635 | 891 ft | 109 kts | 197° |
| 2026-04-26 18:41 | 52.03054 | 7.60201 | 857 ft | 108 kts | 201° |
| 2026-04-26 18:42 | 52.02403 | 7.59678 | 989 ft | 99 kts | 210° |
| 2026-04-26 18:42 | 52.01823 | 7.59101 | 1163 ft | 97 kts | 210° |
| 2026-04-26 18:42 | 52.01224 | 7.58538 | 1274 ft | 103 kts | 211° |
| 2026-04-26 18:42 | 52.00602 | 7.57937 | 1537 ft | 106 kts | 206° |
| 2026-04-26 18:43 | 51.99915 | 7.57428 | 1690 ft | 119 kts | 207° |
| 2026-04-26 18:43 | 51.99201 | 7.56706 | 1745 ft | 121 kts | 211° |
| 2026-04-26 18:43 | 51.98496 | 7.56058 | 1934 ft | 115 kts | 205° |
| 2026-04-26 18:43 | 51.97772 | 7.55534 | 2211 ft | 113 kts | 198° |
| 2026-04-26 18:44 | 51.97024 | 7.55186 | 2438 ft | 117 kts | 193° |
| 2026-04-26 18:44 | 51.96189 | 7.54987 | 2579 ft | 121 kts | 181° |
| 2026-04-26 18:44 | 51.95335 | 7.54914 | 2580 ft | 118 kts | 179° |
| 2026-04-26 18:44 | 51.94541 | 7.54883 | 2577 ft | 110 kts | 178° |
| 2026-04-26 18:45 | 51.93767 | 7.54984 | 2507 ft | 110 kts | 173° |
| 2026-04-26 18:45 | 51.93276 | 7.55042 | 2611 ft | 109 kts | 173° |
| 2026-04-26 18:45 | 51.92497 | 7.55167 | 2728 ft | 117 kts | 172° |
| 2026-04-26 18:45 | 51.91627 | 7.55279 | 2657 ft | 132 kts | 174° |
| 2026-04-26 18:46 | 51.90795 | 7.54794 | 2651 ft | 135 kts | 239° |
| 2026-04-26 18:46 | 51.90536 | 7.53252 | 2423 ft | 140 kts | 259° |
| 2026-04-26 18:46 | 51.90347 | 7.51861 | 2541 ft | 113 kts | 258° |
| 2026-04-26 18:46 | 51.90199 | 7.50586 | 2437 ft | 115 kts | 264° |
| 2026-04-26 18:47 | 51.90135 | 7.49338 | 2418 ft | 111 kts | 270° |
| 2026-04-26 18:47 | 51.90130 | 7.48114 | 2438 ft | 105 kts | 272° |
| 2026-04-26 18:47 | 51.90125 | 7.46988 | 2524 ft | 98 kts | 270° |
| 2026-04-26 18:47 | 51.90110 | 7.45858 | 2504 ft | 103 kts | 272° |
| 2026-04-26 18:48 | 51.90086 | 7.44733 | 2555 ft | 98 kts | 264° |
| 2026-04-26 18:48 | 51.89807 | 7.43691 | 2805 ft | 105 kts | 239° |
| 2026-04-26 18:48 | 51.89393 | 7.42737 | 3148 ft | 103 kts | 229° |
| 2026-04-26 18:48 | 51.88976 | 7.41621 | 3097 ft | 129 kts | 248° |
| 2026-04-26 18:49 | 51.88708 | 7.40358 | 3210 ft | 112 kts | 251° |
| 2026-04-26 18:49 | 51.88390 | 7.39144 | 3180 ft | 119 kts | 246° |
| 2026-04-26 18:49 | 51.88033 | 7.37922 | 3168 ft | 122 kts | 246° |
| 2026-04-26 18:49 | 51.87639 | 7.36694 | 3155 ft | 121 kts | 240° |
| 2026-04-26 18:50 | 51.87188 | 7.35549 | 3148 ft | 122 kts | 238° |
| 2026-04-26 18:50 | 51.86713 | 7.34415 | 3130 ft | 123 kts | 237° |
| 2026-04-26 18:50 | 51.86250 | 7.33179 | 2977 ft | 131 kts | 242° |
| 2026-04-26 18:50 | 51.85820 | 7.31925 | 2922 ft | 123 kts | 240° |
| 2026-04-26 18:51 | 51.85364 | 7.30779 | 2844 ft | 123 kts | 237° |
| 2026-04-26 18:51 | 51.84867 | 7.29601 | 2876 ft | 126 kts | 233° |
| 2026-04-26 18:51 | 51.84320 | 7.28397 | 2790 ft | 132 kts | 233° |
| 2026-04-26 18:51 | 51.83792 | 7.27210 | 2806 ft | 132 kts | 234° |
| 2026-04-26 18:52 | 51.83248 | 7.26022 | 2759 ft | 136 kts | 239° |
| 2026-04-26 18:52 | 51.82754 | 7.24743 | 2778 ft | 133 kts | 237° |
| 2026-04-26 18:52 | 51.82236 | 7.23495 | 2782 ft | 132 kts | 234° |
| 2026-04-26 18:52 | 51.81665 | 7.22342 | 2818 ft | 131 kts | 225° |
| 2026-04-26 18:53 | 51.80972 | 7.21364 | 2726 ft | 139 kts | 218° |
| 2026-04-26 18:53 | 51.80256 | 7.20380 | 2805 ft | 129 kts | 220° |
| 2026-04-26 18:53 | 51.79538 | 7.19466 | 2701 ft | 139 kts | 212° |
| 2026-04-26 18:53 | 51.78697 | 7.18689 | 2672 ft | 138 kts | 206° |
| 2026-04-26 18:54 | 51.78124 | 7.18156 | 2961 ft | 68 kts | 211° |
| 2026-04-26 18:54 | 51.77649 | 7.17615 | 2761 ft | 95 kts | 218° |
| 2026-04-26 18:54 | 51.77054 | 7.17006 | 2685 ft | 106 kts | 207° |
| 2026-04-26 18:54 | 51.76404 | 7.16460 | 2576 ft | 116 kts | 202° |
| 2026-04-26 18:55 | 51.75640 | 7.16011 | 2435 ft | 122 kts | 190° |
| 2026-04-26 18:55 | 51.74791 | 7.15787 | 2257 ft | 125 kts | 187° |
| 2026-04-26 18:55 | 51.73960 | 7.15483 | 2127 ft | 118 kts | 191° |
| 2026-04-26 18:55 | 51.73208 | 7.15187 | 2256 ft | 112 kts | 192° |
| 2026-04-26 18:56 | 51.72405 | 7.14874 | 2349 ft | 125 kts | 189° |
| 2026-04-26 18:56 | 51.71590 | 7.14479 | 2523 ft | 118 kts | 201° |
| 2026-04-26 18:56 | 51.70860 | 7.13834 | 2504 ft | 114 kts | 208° |
| 2026-04-26 18:56 | 51.70267 | 7.13124 | 2703 ft | 105 kts | 216° |
| 2026-04-26 18:57 | 51.69668 | 7.12443 | 2796 ft | 103 kts | 213° |
| 2026-04-26 18:57 | 51.69251 | 7.11976 | 2852 ft | 117 kts | 213° |
| 2026-04-26 18:57 | 51.68246 | 7.10972 | 2982 ft | 123 kts | 207° |
| 2026-04-26 18:57 | 51.67470 | 7.10310 | 3008 ft | 131 kts | 208° |
| 2026-04-26 18:58 | 51.66751 | 7.09618 | 3023 ft | 119 kts | 217° |
| 2026-04-26 18:58 | 51.66061 | 7.08826 | 2856 ft | 120 kts | 211° |
| 2026-04-26 18:58 | 51.65369 | 7.08075 | 2666 ft | 116 kts | 210° |
| 2026-04-26 18:58 | 51.64625 | 7.07360 | 2401 ft | 126 kts | 225° |
| 2026-04-26 18:59 | 51.64243 | 7.06101 | 2198 ft | 124 kts | 250° |
| 2026-04-26 18:59 | 51.63958 | 7.04770 | 1985 ft | 124 kts | 254° |
| 2026-04-26 18:59 | 51.63552 | 7.03751 | 1976 ft | 103 kts | 182° |
| 2026-04-26 18:59 | 51.62824 | 7.03704 | 1736 ft | 103 kts | 178° |
| 2026-04-26 19:00 | 51.62245 | 7.03635 | 2000 ft | 70 kts | 179° |
| 2026-04-26 19:00 | 51.61721 | 7.03572 | 2101 ft | 74 kts | 181° |
| 2026-04-26 19:00 | 51.61206 | 7.03416 | 2308 ft | 84 kts | 187° |
| 2026-04-26 19:00 | 51.60693 | 7.03258 | 2352 ft | 70 kts | 186° |
| 2026-04-26 19:01 | 51.60106 | 7.03108 | 2226 ft | 112 kts | 181° |
| 2026-04-26 19:01 | 51.59389 | 7.02866 | 2437 ft | 73 kts | 203° |
| 2026-04-26 19:01 | 51.58722 | 7.02379 | 2055 ft | 128 kts | 206° |
| 2026-04-26 19:01 | 51.58023 | 7.01659 | 2130 ft | 110 kts | 208° |
| 2026-04-26 19:02 | 51.57368 | 7.01095 | 2101 ft | 107 kts | 201° |
| 2026-04-26 19:02 | 51.56673 | 7.00436 | 1594 ft | 118 kts | 223° |
| 2026-04-26 19:02 | 51.56156 | 6.99545 | 1997 ft | 119 kts | 237° |
| 2026-04-26 19:02 | 51.55893 | 6.98846 | 1795 ft | 61 kts | 201° |
| 2026-04-26 19:03 | 51.55665 | 6.97665 | 1972 ft | 100 kts | 274° |
| 2026-04-26 19:03 | 51.55594 | 6.96509 | 1947 ft | 105 kts | 272° |
| 2026-04-26 19:03 | 51.55676 | 6.95373 | 1972 ft | 104 kts | 275° |
| 2026-04-26 19:03 | 51.55489 | 6.94187 | 1954 ft | 115 kts | 249° |
| 2026-04-26 19:04 | 51.55176 | 6.93009 | 1986 ft | 114 kts | 244° |
| 2026-04-26 19:04 | 51.54817 | 6.91852 | 1890 ft | 117 kts | 246° |
| 2026-04-26 19:04 | 51.54593 | 6.90660 | 1855 ft | 106 kts | 263° |
| 2026-04-26 19:04 | 51.54468 | 6.89520 | 1771 ft | 104 kts | 260° |
| 2026-04-26 19:05 | 51.54014 | 6.87218 | 1679 ft | 109 kts | 246° |
| 2026-04-26 19:05 | 51.53721 | 6.86130 | 1665 ft | 98 kts | 248° |
| 2026-04-26 19:05 | 51.53428 | 6.85242 | 1622 ft | 86 kts | 238° |
| 2026-04-26 19:06 | 51.53053 | 6.84392 | 1525 ft | 100 kts | 231° |
| 2026-04-26 19:06 | 51.52554 | 6.83592 | 1477 ft | 105 kts | 217° |
| 2026-04-26 19:06 | 51.51941 | 6.82930 | 1439 ft | 108 kts | 207° |
| 2026-04-26 19:06 | 51.51294 | 6.82440 | 1662 ft | 97 kts | 197° |
| 2026-04-26 19:07 | 51.50637 | 6.82062 | 1774 ft | 104 kts | 196° |
| 2026-04-26 19:07 | 51.49937 | 6.81640 | 1880 ft | 111 kts | 195° |
| 2026-04-26 19:07 | 51.49183 | 6.81324 | 1985 ft | 111 kts | 188° |
| 2026-04-26 19:07 | 51.48418 | 6.80982 | 1972 ft | 115 kts | 194° |
| 2026-04-26 19:08 | 51.47691 | 6.80671 | 1968 ft | 99 kts | 191° |
| 2026-04-26 19:08 | 51.47073 | 6.80380 | 1948 ft | 87 kts | 195° |
| 2026-04-26 19:08 | 51.46475 | 6.80020 | 1849 ft | 99 kts | 196° |
| 2026-04-26 19:08 | 51.45820 | 6.79668 | 1845 ft | 101 kts | 194° |